Terminal Aerodrome Forecast
Issued by NWS

Home | Current Version | Previous Version | Text Only | Print | Product List | Glossary On
Versions: 1 2 3 4 5 6 7 8 9 10 11 12 13 14 15 16 17 18
000
FTUS43 KOAX 311120
TAFCDR
TAF
KCDR 311120Z 3112/0112 VRB05KT 3SM BR OVC010
      TEMPO 3112/3114 1/2SM FZFG VV002
     FM311400 16010KT P6SM BKN015
     FM311700 17022G30KT P6SM SCT020
     FM312100 17022G31KT P6SM SCT250
     FM010000 17020G28KT P6SM SCT200=

USA.gov is the U.S. government's official web portal to all federal, state and local government web resources and services.